sensor_id;sensor_type;location;lat;lon;timestamp;P1;durP1;ratioP1;P2;durP2;ratioP2
33459;SDS011;19795;53.160;6.612;2023-04-03T05:32:23;8.98;;;2.95;;
33459;SDS011;19795;53.160;6.612;2023-04-03T05:34:50;10.52;;;3.08;;
33459;SDS011;19795;53.160;6.612;2023-04-03T05:37:16;9.45;;;2.83;;
33459;SDS011;19795;53.160;6.612;2023-04-03T05:39:42;13.50;;;3.60;;
33459;SDS011;19795;53.160;6.612;2023-04-03T05:42:08;10.35;;;3.08;;
33459;SDS011;19795;53.160;6.612;2023-04-03T05:44:33;9.88;;;3.35;;
33459;SDS011;19795;53.160;6.612;2023-04-03T05:47:00;15.93;;;3.60;;
33459;SDS011;19795;53.160;6.612;2023-04-03T05:49:26;6.93;;;2.72;;
33459;SDS011;19795;53.160;6.612;2023-04-03T05:51:51;8.70;;;2.63;;
33459;SDS011;19795;53.160;6.612;2023-04-03T05:54:18;8.43;;;2.85;;
33459;SDS011;19795;53.160;6.612;2023-04-03T05:56:48;12.10;;;3.47;;
33459;SDS011;19795;53.160;6.612;2023-04-03T05:59:14;7.18;;;2.75;;
33459;SDS011;19795;53.160;6.612;2023-04-03T06:01:40;11.57;;;3.05;;
33459;SDS011;19795;53.160;6.612;2023-04-03T06:04:06;8.45;;;2.67;;
33459;SDS011;19795;53.160;6.612;2023-04-03T06:06:46;10.85;;;3.13;;
33459;SDS011;19795;53.160;6.612;2023-04-03T06:09:18;11.18;;;2.67;;
33459;SDS011;19795;53.160;6.612;2023-04-03T06:11:45;11.13;;;2.85;;
33459;SDS011;19795;53.160;6.612;2023-04-03T06:14:11;8.45;;;2.58;;
33459;SDS011;19795;53.160;6.612;2023-04-03T06:16:37;8.70;;;2.75;;
33459;SDS011;19795;53.160;6.612;2023-04-03T06:19:04;6.43;;;2.47;;
33459;SDS011;19795;53.160;6.612;2023-04-03T06:21:32;5.95;;;2.00;;
33459;SDS011;19795;53.160;6.612;2023-04-03T06:23:58;7.82;;;2.60;;
33459;SDS011;19795;53.160;6.612;2023-04-03T06:26:23;9.65;;;2.72;;
33459;SDS011;19795;53.160;6.612;2023-04-03T06:28:49;7.78;;;2.50;;
33459;SDS011;19795;53.160;6.612;2023-04-03T06:31:15;12.13;;;3.13;;
33459;SDS011;19795;53.160;6.612;2023-04-03T06:33:41;6.43;;;2.50;;
33459;SDS011;19795;53.160;6.612;2023-04-03T06:36:07;14.25;;;2.42;;
33459;SDS011;19795;53.160;6.612;2023-04-03T06:38:35;9.90;;;2.33;;
33459;SDS011;19795;53.160;6.612;2023-04-03T06:41:00;5.43;;;2.05;;
33459;SDS011;19795;53.160;6.612;2023-04-03T06:43:26;9.45;;;2.28;;
33459;SDS011;19795;53.160;6.612;2023-04-03T06:45:52;6.28;;;2.05;;
33459;SDS011;19795;53.160;6.612;2023-04-03T06:48:17;7.72;;;2.10;;
33459;SDS011;19795;53.160;6.612;2023-04-03T06:50:44;8.15;;;2.67;;
33459;SDS011;19795;53.160;6.612;2023-04-03T06:53:10;7.35;;;2.28;;
33459;SDS011;19795;53.160;6.612;2023-04-03T06:55:35;8.10;;;2.17;;
33459;SDS011;19795;53.160;6.612;2023-04-03T06:58:02;7.40;;;2.20;;
33459;SDS011;19795;53.160;6.612;2023-04-03T07:00:28;9.15;;;2.50;;
33459;SDS011;19795;53.160;6.612;2023-04-03T07:02:55;7.45;;;2.25;;
33459;SDS011;19795;53.160;6.612;2023-04-03T07:05:22;6.90;;;2.25;;
33459;SDS011;19795;53.160;6.612;2023-04-03T07:07:48;9.13;;;1.85;;
33459;SDS011;19795;53.160;6.612;2023-04-03T07:10:15;7.78;;;2.05;;
33459;SDS011;19795;53.160;6.612;2023-04-03T07:12:41;9.05;;;2.25;;
33459;SDS011;19795;53.160;6.612;2023-04-03T07:15:07;5.82;;;1.80;;
33459;SDS011;19795;53.160;6.612;2023-04-03T07:17:33;6.68;;;2.15;;
33459;SDS011;19795;53.160;6.612;2023-04-03T07:19:59;3.85;;;1.60;;
33459;SDS011;19795;53.160;6.612;2023-04-03T07:22:25;5.38;;;1.63;;
33459;SDS011;19795;53.160;6.612;2023-04-03T07:24:50;7.20;;;1.70;;
33459;SDS011;19795;53.160;6.612;2023-04-03T07:27:17;5.28;;;1.70;;
33459;SDS011;19795;53.160;6.612;2023-04-03T07:29:43;5.60;;;1.80;;
33459;SDS011;19795;53.160;6.612;2023-04-03T07:32:09;4.93;;;1.40;;
33459;SDS011;19795;53.160;6.612;2023-04-03T07:34:35;6.22;;;1.35;;
33459;SDS011;19795;53.160;6.612;2023-04-03T07:37:01;3.00;;;1.23;;
33459;SDS011;19795;53.160;6.612;2023-04-03T07:39:27;4.03;;;1.63;;
33459;SDS011;19795;53.160;6.612;2023-04-03T07:41:53;2.75;;;1.08;;
33459;SDS011;19795;53.160;6.612;2023-04-03T07:44:21;5.40;;;1.90;;
33459;SDS011;19795;53.160;6.612;2023-04-03T07:46:47;4.43;;;1.48;;
33459;SDS011;19795;53.160;6.612;2023-04-03T07:49:13;6.10;;;1.50;;
33459;SDS011;19795;53.160;6.612;2023-04-03T07:51:39;2.20;;;1.08;;
33459;SDS011;19795;53.160;6.612;2023-04-03T07:54:05;5.45;;;1.42;;
33459;SDS011;19795;53.160;6.612;2023-04-03T07:56:31;6.65;;;1.80;;
33459;SDS011;19795;53.160;6.612;2023-04-03T07:58:57;4.68;;;1.52;;
33459;SDS011;19795;53.160;6.612;2023-04-03T08:01:22;4.90;;;1.60;;
33459;SDS011;19795;53.160;6.612;2023-04-03T08:03:48;4.93;;;1.50;;
33459;SDS011;19795;53.160;6.612;2023-04-03T08:06:14;5.50;;;1.40;;
33459;SDS011;19795;53.160;6.612;2023-04-03T08:08:40;4.63;;;1.50;;
33459;SDS011;19795;53.160;6.612;2023-04-03T08:11:06;6.20;;;1.40;;
33459;SDS011;19795;53.160;6.612;2023-04-03T08:13:33;7.07;;;1.40;;
33459;SDS011;19795;53.160;6.612;2023-04-03T08:16:10;4.25;;;1.85;;
33459;SDS011;19795;53.160;6.612;2023-04-03T08:18:37;3.45;;;1.15;;
33459;SDS011;19795;53.160;6.612;2023-04-03T08:21:07;6.30;;;1.38;;
33459;SDS011;19795;53.160;6.612;2023-04-03T08:23:34;5.93;;;1.30;;
33459;SDS011;19795;53.160;6.612;2023-04-03T08:26:10;5.00;;;1.40;;
33459;SDS011;19795;53.160;6.612;2023-04-03T08:28:38;4.85;;;1.38;;
33459;SDS011;19795;53.160;6.612;2023-04-03T08:31:04;5.60;;;1.38;;
33459;SDS011;19795;53.160;6.612;2023-04-03T08:33:38;5.68;;;1.73;;
33459;SDS011;19795;53.160;6.612;2023-04-03T08:36:05;7.57;;;1.52;;
33459;SDS011;19795;53.160;6.612;2023-04-03T08:38:32;4.35;;;1.15;;
33459;SDS011;19795;53.160;6.612;2023-04-03T08:41:04;5.32;;;1.42;;
33459;SDS011;19795;53.160;6.612;2023-04-03T08:46:06;5.00;;;1.42;;
33459;SDS011;19795;53.160;6.612;2023-04-03T08:48:39;4.65;;;1.42;;
33459;SDS011;19795;53.160;6.612;2023-04-03T08:51:14;6.07;;;1.40;;
33459;SDS011;19795;53.160;6.612;2023-04-03T08:53:42;4.93;;;1.50;;
33459;SDS011;19795;53.160;6.612;2023-04-03T08:56:14;7.60;;;1.63;;
33459;SDS011;19795;53.160;6.612;2023-04-03T08:58:48;7.00;;;1.67;;
33459;SDS011;19795;53.160;6.612;2023-04-03T09:03:54;3.45;;;1.55;;
33459;SDS011;19795;53.160;6.612;2023-04-03T09:06:25;4.93;;;1.95;;
33459;SDS011;19795;53.160;6.612;2023-04-03T09:14:29;3.22;;;1.20;;
33459;SDS011;19795;53.160;6.612;2023-04-03T09:17:03;6.10;;;1.60;;
33459;SDS011;19795;53.160;6.612;2023-04-03T09:20:02;5.00;;;1.30;;
33459;SDS011;19795;53.160;6.612;2023-04-03T09:22:45;7.03;;;1.63;;
33459;SDS011;19795;53.160;6.612;2023-04-03T09:25:15;2.58;;;1.00;;
33459;SDS011;19795;53.160;6.612;2023-04-03T09:27:46;6.55;;;1.40;;
33459;SDS011;19795;53.160;6.612;2023-04-03T09:30:18;3.58;;;1.20;;
33459;SDS011;19795;53.160;6.612;2023-04-03T09:32:49;5.28;;;1.40;;
33459;SDS011;19795;53.160;6.612;2023-04-03T09:37:50;3.28;;;1.20;;
33459;SDS011;19795;53.160;6.612;2023-04-03T09:42:57;5.07;;;1.75;;
33459;SDS011;19795;53.160;6.612;2023-04-03T09:48:25;8.75;;;1.48;;
33459;SDS011;19795;53.160;6.612;2023-04-03T09:50:52;4.13;;;1.38;;
33459;SDS011;19795;53.160;6.612;2023-04-03T09:53:39;3.88;;;1.30;;
33459;SDS011;19795;53.160;6.612;2023-04-03T09:58:42;2.85;;;1.00;;
33459;SDS011;19795;53.160;6.612;2023-04-03T10:01:20;2.78;;;0.95;;
33459;SDS011;19795;53.160;6.612;2023-04-03T10:04:11;3.13;;;1.02;;
33459;SDS011;19795;53.160;6.612;2023-04-03T10:06:42;2.78;;;0.85;;
33459;SDS011;19795;53.160;6.612;2023-04-03T10:14:36;5.53;;;1.10;;
33459;SDS011;19795;53.160;6.612;2023-04-03T10:19:46;2.55;;;1.08;;
33459;SDS011;19795;53.160;6.612;2023-04-03T10:30:39;1.88;;;0.43;;
33459;SDS011;19795;53.160;6.612;2023-04-03T10:33:18;1.55;;;0.68;;
33459;SDS011;19795;53.160;6.612;2023-04-03T10:36:07;0.60;;;0.40;;
33459;SDS011;19795;53.160;6.612;2023-04-03T10:47:05;1.25;;;0.60;;
33459;SDS011;19795;53.160;6.612;2023-04-03T10:52:14;2.72;;;0.70;;
33459;SDS011;19795;53.160;6.612;2023-04-03T10:57:41;2.42;;;0.65;;
33459;SDS011;19795;53.160;6.612;2023-04-03T11:00:35;4.75;;;0.80;;
33459;SDS011;19795;53.160;6.612;2023-04-03T11:02:57;1.60;;;0.30;;
33459;SDS011;19795;53.160;6.612;2023-04-03T11:07:54;2.63;;;0.80;;
33459;SDS011;19795;53.160;6.612;2023-04-03T11:10:28;2.38;;;0.70;;
33459;SDS011;19795;53.160;6.612;2023-04-03T11:13:14;3.50;;;0.80;;
33459;SDS011;19795;53.160;6.612;2023-04-03T11:15:56;1.80;;;0.73;;
33459;SDS011;19795;53.160;6.612;2023-04-03T11:18:42;3.10;;;0.90;;
33459;SDS011;19795;53.160;6.612;2023-04-03T11:21:15;3.33;;;0.90;;
33459;SDS011;19795;53.160;6.612;2023-04-03T11:23:47;2.10;;;0.82;;
33459;SDS011;19795;53.160;6.612;2023-04-03T11:26:13;2.40;;;0.80;;
33459;SDS011;19795;53.160;6.612;2023-04-03T11:28:42;2.30;;;0.80;;
33459;SDS011;19795;53.160;6.612;2023-04-03T11:31:44;2.03;;;0.70;;
33459;SDS011;19795;53.160;6.612;2023-04-03T11:36:55;1.38;;;0.68;;
33459;SDS011;19795;53.160;6.612;2023-04-03T11:39:25;1.90;;;0.85;;
33459;SDS011;19795;53.160;6.612;2023-04-03T11:51:00;2.88;;;0.90;;
33459;SDS011;19795;53.160;6.612;2023-04-03T11:58:16;2.53;;;0.70;;
33459;SDS011;19795;53.160;6.612;2023-04-03T12:13:39;1.42;;;0.65;;
33459;SDS011;19795;53.160;6.612;2023-04-03T12:16:19;2.00;;;0.50;;
33459;SDS011;19795;53.160;6.612;2023-04-03T12:41:48;2.25;;;0.80;;
33459;SDS011;19795;53.160;6.612;2023-04-03T12:47:21;3.25;;;0.93;;
33459;SDS011;19795;53.160;6.612;2023-04-03T12:49:57;2.65;;;0.73;;
33459;SDS011;19795;53.160;6.612;2023-04-03T12:52:33;2.78;;;0.68;;
33459;SDS011;19795;53.160;6.612;2023-04-03T12:55:07;2.53;;;0.70;;
33459;SDS011;19795;53.160;6.612;2023-04-03T12:57:40;3.88;;;0.88;;
33459;SDS011;19795;53.160;6.612;2023-04-03T13:00:27;1.70;;;0.70;;
33459;SDS011;19795;53.160;6.612;2023-04-03T13:02:53;3.78;;;1.02;;
33459;SDS011;19795;53.160;6.612;2023-04-03T13:05:19;2.90;;;0.82;;
33459;SDS011;19795;53.160;6.612;2023-04-03T13:07:54;2.95;;;0.80;;
33459;SDS011;19795;53.160;6.612;2023-04-03T13:10:24;2.90;;;0.80;;
33459;SDS011;19795;53.160;6.612;2023-04-03T13:15:25;4.15;;;1.00;;
33459;SDS011;19795;53.160;6.612;2023-04-03T13:17:56;5.05;;;0.90;;
33459;SDS011;19795;53.160;6.612;2023-04-03T13:22:57;3.40;;;1.02;;
33459;SDS011;19795;53.160;6.612;2023-04-03T13:25:37;3.55;;;0.95;;
33459;SDS011;19795;53.160;6.612;2023-04-03T13:28:12;2.83;;;1.05;;
33459;SDS011;19795;53.160;6.612;2023-04-03T13:33:29;3.08;;;0.95;;
33459;SDS011;19795;53.160;6.612;2023-04-03T13:36:00;1.95;;;0.70;;
33459;SDS011;19795;53.160;6.612;2023-04-03T13:38:30;2.05;;;0.85;;
33459;SDS011;19795;53.160;6.612;2023-04-03T13:40:59;3.58;;;0.88;;
33459;SDS011;19795;53.160;6.612;2023-04-03T13:43:31;2.53;;;0.82;;
33459;SDS011;19795;53.160;6.612;2023-04-03T13:48:49;3.85;;;0.98;;
33459;SDS011;19795;53.160;6.612;2023-04-03T13:51:21;3.17;;;0.70;;
33459;SDS011;19795;53.160;6.612;2023-04-03T13:56:38;1.88;;;0.73;;
33459;SDS011;19795;53.160;6.612;2023-04-03T14:04:19;2.28;;;0.73;;
33459;SDS011;19795;53.160;6.612;2023-04-03T14:06:50;3.92;;;0.90;;
33459;SDS011;19795;53.160;6.612;2023-04-03T14:09:17;2.22;;;0.70;;
33459;SDS011;19795;53.160;6.612;2023-04-03T14:11:44;2.78;;;0.80;;
33459;SDS011;19795;53.160;6.612;2023-04-03T14:14:16;2.33;;;0.85;;
33459;SDS011;19795;53.160;6.612;2023-04-03T14:16:45;2.50;;;0.73;;
33459;SDS011;19795;53.160;6.612;2023-04-03T14:19:27;4.88;;;1.02;;
33459;SDS011;19795;53.160;6.612;2023-04-03T14:21:58;1.95;;;0.77;;
33459;SDS011;19795;53.160;6.612;2023-04-03T14:24:25;2.83;;;1.20;;
33459;SDS011;19795;53.160;6.612;2023-04-03T14:26:52;2.65;;;1.10;;
33459;SDS011;19795;53.160;6.612;2023-04-03T14:29:19;3.38;;;1.10;;
33459;SDS011;19795;53.160;6.612;2023-04-03T14:31:47;2.15;;;0.95;;
33459;SDS011;19795;53.160;6.612;2023-04-03T14:34:13;3.38;;;1.27;;
33459;SDS011;19795;53.160;6.612;2023-04-03T14:36:41;3.58;;;0.98;;
33459;SDS011;19795;53.160;6.612;2023-04-03T14:39:08;5.70;;;1.00;;
33459;SDS011;19795;53.160;6.612;2023-04-03T14:41:41;5.38;;;0.90;;
33459;SDS011;19795;53.160;6.612;2023-04-03T14:44:07;1.00;;;0.60;;
33459;SDS011;19795;53.160;6.612;2023-04-03T14:46:37;3.25;;;0.65;;
33459;SDS011;19795;53.160;6.612;2023-04-03T14:49:14;3.47;;;0.95;;
33459;SDS011;19795;53.160;6.612;2023-04-03T14:51:44;2.40;;;1.00;;
33459;SDS011;19795;53.160;6.612;2023-04-03T14:54:14;2.95;;;0.80;;
33459;SDS011;19795;53.160;6.612;2023-04-03T14:56:42;1.85;;;0.70;;
33459;SDS011;19795;53.160;6.612;2023-04-03T14:59:09;2.65;;;0.88;;
33459;SDS011;19795;53.160;6.612;2023-04-03T15:01:37;2.67;;;0.90;;
33459;SDS011;19795;53.160;6.612;2023-04-03T15:04:08;3.55;;;0.93;;
33459;SDS011;19795;53.160;6.612;2023-04-03T15:06:36;2.83;;;1.10;;
33459;SDS011;19795;53.160;6.612;2023-04-03T15:09:02;3.60;;;0.90;;
33459;SDS011;19795;53.160;6.612;2023-04-03T15:11:28;5.30;;;0.90;;
33459;SDS011;19795;53.160;6.612;2023-04-03T15:13:54;3.28;;;0.82;;
33459;SDS011;19795;53.160;6.612;2023-04-03T15:16:19;3.58;;;0.88;;
33459;SDS011;19795;53.160;6.612;2023-04-03T15:18:46;3.80;;;1.00;;
33459;SDS011;19795;53.160;6.612;2023-04-03T15:21:12;2.45;;;1.00;;
33459;SDS011;19795;53.160;6.612;2023-04-03T15:23:38;4.95;;;1.35;;
33459;SDS011;19795;53.160;6.612;2023-04-03T15:26:04;2.08;;;1.00;;
33459;SDS011;19795;53.160;6.612;2023-04-03T15:28:35;3.60;;;1.00;;
33459;SDS011;19795;53.160;6.612;2023-04-03T15:31:03;2.22;;;0.77;;
33459;SDS011;19795;53.160;6.612;2023-04-03T15:33:31;3.85;;;0.90;;
33459;SDS011;19795;53.160;6.612;2023-04-03T15:35:57;3.58;;;1.10;;
33459;SDS011;19795;53.160;6.612;2023-04-03T15:38:23;1.80;;;1.00;;
33459;SDS011;19795;53.160;6.612;2023-04-03T15:40:49;4.25;;;1.10;;
33459;SDS011;19795;53.160;6.612;2023-04-03T15:43:15;3.85;;;1.10;;
33459;SDS011;19795;53.160;6.612;2023-04-03T15:45:41;2.35;;;0.95;;
33459;SDS011;19795;53.160;6.612;2023-04-03T15:48:08;2.53;;;1.02;;
33459;SDS011;19795;53.160;6.612;2023-04-03T15:50:35;2.75;;;0.90;;
33459;SDS011;19795;53.160;6.612;2023-04-03T15:53:01;2.72;;;1.05;;
33459;SDS011;19795;53.160;6.612;2023-04-03T15:55:28;2.42;;;0.80;;
33459;SDS011;19795;53.160;6.612;2023-04-03T15:57:56;2.22;;;0.95;;
33459;SDS011;19795;53.160;6.612;2023-04-03T16:00:22;1.35;;;0.70;;
33459;SDS011;19795;53.160;6.612;2023-04-03T16:02:51;2.47;;;0.65;;
33459;SDS011;19795;53.160;6.612;2023-04-03T16:05:19;1.10;;;0.40;;
33459;SDS011;19795;53.160;6.612;2023-04-03T16:07:45;1.95;;;0.55;;
33459;SDS011;19795;53.160;6.612;2023-04-03T16:10:12;1.40;;;0.60;;
33459;SDS011;19795;53.160;6.612;2023-04-03T16:12:40;2.67;;;0.60;;
33459;SDS011;19795;53.160;6.612;2023-04-03T16:15:06;1.80;;;0.50;;
33459;SDS011;19795;53.160;6.612;2023-04-03T16:17:41;2.38;;;0.60;;
33459;SDS011;19795;53.160;6.612;2023-04-03T16:20:07;0.93;;;0.40;;
33459;SDS011;19795;53.160;6.612;2023-04-03T16:22:34;2.97;;;0.85;;
33459;SDS011;19795;53.160;6.612;2023-04-03T16:25:00;2.10;;;0.88;;
33459;SDS011;19795;53.160;6.612;2023-04-03T16:27:26;1.60;;;0.40;;
33459;SDS011;19795;53.160;6.612;2023-04-03T16:29:55;2.45;;;0.60;;
33459;SDS011;19795;53.160;6.612;2023-04-03T16:32:25;3.38;;;0.63;;
33459;SDS011;19795;53.160;6.612;2023-04-03T16:34:53;2.35;;;0.73;;
33459;SDS011;19795;53.160;6.612;2023-04-03T16:37:19;1.73;;;0.80;;
33459;SDS011;19795;53.160;6.612;2023-04-03T16:39:45;2.90;;;0.77;;
33459;SDS011;19795;53.160;6.612;2023-04-03T16:42:10;3.35;;;0.88;;
33459;SDS011;19795;53.160;6.612;2023-04-03T16:44:36;3.55;;;0.68;;
33459;SDS011;19795;53.160;6.612;2023-04-03T16:47:02;1.67;;;0.50;;
33459;SDS011;19795;53.160;6.612;2023-04-03T16:49:28;1.77;;;0.65;;
33459;SDS011;19795;53.160;6.612;2023-04-03T16:52:00;2.60;;;0.93;;
33459;SDS011;19795;53.160;6.612;2023-04-03T16:54:27;1.75;;;0.65;;
33459;SDS011;19795;53.160;6.612;2023-04-03T16:56:53;3.35;;;0.70;;
33459;SDS011;19795;53.160;6.612;2023-04-03T16:59:19;3.13;;;0.90;;
33459;SDS011;19795;53.160;6.612;2023-04-03T17:01:44;4.50;;;1.13;;
33459;SDS011;19795;53.160;6.612;2023-04-03T17:04:10;3.70;;;1.15;;
33459;SDS011;19795;53.160;6.612;2023-04-03T17:06:35;2.38;;;1.00;;
33459;SDS011;19795;53.160;6.612;2023-04-03T17:09:01;3.85;;;0.90;;
33459;SDS011;19795;53.160;6.612;2023-04-03T17:11:27;5.50;;;1.15;;
33459;SDS011;19795;53.160;6.612;2023-04-03T17:13:54;2.88;;;0.68;;
33459;SDS011;19795;53.160;6.612;2023-04-03T17:16:20;3.97;;;0.75;;
33459;SDS011;19795;53.160;6.612;2023-04-03T17:18:46;5.15;;;1.00;;
33459;SDS011;19795;53.160;6.612;2023-04-03T17:21:12;1.90;;;0.80;;
33459;SDS011;19795;53.160;6.612;2023-04-03T17:23:39;3.47;;;1.48;;
33459;SDS011;19795;53.160;6.612;2023-04-03T17:26:07;1.60;;;0.60;;
33459;SDS011;19795;53.160;6.612;2023-04-03T17:28:36;3.53;;;0.98;;
33459;SDS011;19795;53.160;6.612;2023-04-03T17:31:03;3.05;;;1.10;;
33459;SDS011;19795;53.160;6.612;2023-04-03T17:33:29;3.03;;;0.98;;
33459;SDS011;19795;53.160;6.612;2023-04-03T17:35:58;2.90;;;1.08;;
33459;SDS011;19795;53.160;6.612;2023-04-03T17:38:26;3.78;;;0.98;;
33459;SDS011;19795;53.160;6.612;2023-04-03T17:40:56;3.40;;;1.17;;
33459;SDS011;19795;53.160;6.612;2023-04-03T17:43:23;5.60;;;1.20;;
33459;SDS011;19795;53.160;6.612;2023-04-03T17:45:49;5.63;;;1.30;;
33459;SDS011;19795;53.160;6.612;2023-04-03T17:48:15;3.20;;;1.38;;
33459;SDS011;19795;53.160;6.612;2023-04-03T17:50:41;3.80;;;1.38;;
33459;SDS011;19795;53.160;6.612;2023-04-03T17:53:07;3.08;;;1.33;;
33459;SDS011;19795;53.160;6.612;2023-04-03T17:55:33;4.50;;;1.30;;
33459;SDS011;19795;53.160;6.612;2023-04-03T17:58:02;4.45;;;1.30;;
33459;SDS011;19795;53.160;6.612;2023-04-03T18:00:27;5.82;;;1.25;;
33459;SDS011;19795;53.160;6.612;2023-04-03T18:02:53;2.38;;;0.93;;
33459;SDS011;19795;53.160;6.612;2023-04-03T18:05:19;4.40;;;1.25;;
33459;SDS011;19795;53.160;6.612;2023-04-03T18:07:45;3.00;;;1.02;;
33459;SDS011;19795;53.160;6.612;2023-04-03T18:10:11;5.45;;;1.20;;
33459;SDS011;19795;53.160;6.612;2023-04-03T18:12:38;3.35;;;1.30;;
33459;SDS011;19795;53.160;6.612;2023-04-03T18:15:06;4.10;;;1.27;;
33459;SDS011;19795;53.160;6.612;2023-04-03T18:17:33;2.97;;;1.08;;
33459;SDS011;19795;53.160;6.612;2023-04-03T18:19:58;5.45;;;1.30;;
33459;SDS011;19795;53.160;6.612;2023-04-03T18:22:24;2.10;;;1.00;;
33459;SDS011;19795;53.160;6.612;2023-04-03T18:24:50;5.07;;;1.33;;
33459;SDS011;19795;53.160;6.612;2023-04-03T18:27:18;6.57;;;1.35;;
33459;SDS011;19795;53.160;6.612;2023-04-03T18:29:49;5.55;;;1.33;;
33459;SDS011;19795;53.160;6.612;2023-04-03T18:32:18;2.75;;;1.38;;
33459;SDS011;19795;53.160;6.612;2023-04-03T18:34:45;5.03;;;1.70;;
33459;SDS011;19795;53.160;6.612;2023-04-03T18:37:11;5.10;;;1.60;;
33459;SDS011;19795;53.160;6.612;2023-04-03T18:39:37;2.72;;;1.27;;
33459;SDS011;19795;53.160;6.612;2023-04-03T18:42:04;4.03;;;1.60;;
33459;SDS011;19795;53.160;6.612;2023-04-03T18:44:35;4.43;;;2.05;;
33459;SDS011;19795;53.160;6.612;2023-04-03T18:47:03;6.75;;;1.30;;
33459;SDS011;19795;53.160;6.612;2023-04-03T18:49:29;4.13;;;1.88;;
33459;SDS011;19795;53.160;6.612;2023-04-03T18:51:58;3.50;;;1.50;;
33459;SDS011;19795;53.160;6.612;2023-04-03T18:54:23;4.18;;;1.20;;
33459;SDS011;19795;53.160;6.612;2023-04-03T18:56:49;3.40;;;1.52;;
33459;SDS011;19795;53.160;6.612;2023-04-03T18:59:15;7.47;;;1.88;;
33459;SDS011;19795;53.160;6.612;2023-04-03T19:01:40;5.43;;;1.77;;
33459;SDS011;19795;53.160;6.612;2023-04-03T19:04:06;7.10;;;1.80;;
33459;SDS011;19795;53.160;6.612;2023-04-03T19:06:33;5.97;;;1.92;;
33459;SDS011;19795;53.160;6.612;2023-04-03T19:09:01;3.72;;;1.90;;
33459;SDS011;19795;53.160;6.612;2023-04-03T19:11:29;3.63;;;1.90;;
33459;SDS011;19795;53.160;6.612;2023-04-03T19:13:55;6.03;;;2.33;;
33459;SDS011;19795;53.160;6.612;2023-04-03T19:16:21;5.72;;;2.80;;
33459;SDS011;19795;53.160;6.612;2023-04-03T19:18:47;6.55;;;3.70;;
33459;SDS011;19795;53.160;6.612;2023-04-03T19:21:12;8.55;;;4.20;;
33459;SDS011;19795;53.160;6.612;2023-04-03T19:23:39;8.10;;;4.75;;
33459;SDS011;19795;53.160;6.612;2023-04-03T19:26:09;9.25;;;4.50;;
33459;SDS011;19795;53.160;6.612;2023-04-03T19:28:36;8.57;;;4.47;;
33459;SDS011;19795;53.160;6.612;2023-04-03T19:31:09;7.43;;;4.40;;
33459;SDS011;19795;53.160;6.612;2023-04-03T19:33:36;10.70;;;4.57;;
33459;SDS011;19795;53.160;6.612;2023-04-03T19:36:05;8.35;;;3.65;;
33459;SDS011;19795;53.160;6.612;2023-04-03T19:38:31;9.95;;;4.28;;
33459;SDS011;19795;53.160;6.612;2023-04-03T19:40:57;7.32;;;3.80;;
33459;SDS011;19795;53.160;6.612;2023-04-03T19:43:23;6.75;;;3.60;;
33459;SDS011;19795;53.160;6.612;2023-04-03T19:45:48;8.63;;;3.90;;
33459;SDS011;19795;53.160;6.612;2023-04-03T19:48:14;8.15;;;3.40;;
33459;SDS011;19795;53.160;6.612;2023-04-03T19:50:40;4.85;;;2.88;;
33459;SDS011;19795;53.160;6.612;2023-04-03T19:53:06;4.85;;;2.22;;
33459;SDS011;19795;53.160;6.612;2023-04-03T19:55:43;6.80;;;2.30;;
33459;SDS011;19795;53.160;6.612;2023-04-03T19:58:10;5.05;;;1.95;;
33459;SDS011;19795;53.160;6.612;2023-04-03T20:00:35;5.55;;;1.60;;
33459;SDS011;19795;53.160;6.612;2023-04-03T20:03:01;6.20;;;1.80;;
33459;SDS011;19795;53.160;6.612;2023-04-03T20:05:27;3.90;;;1.55;;
33459;SDS011;19795;53.160;6.612;2023-04-03T20:07:52;4.38;;;1.65;;
33459;SDS011;19795;53.160;6.612;2023-04-03T20:10:19;5.50;;;2.05;;
33459;SDS011;19795;53.160;6.612;2023-04-03T20:12:45;6.65;;;2.33;;
33459;SDS011;19795;53.160;6.612;2023-04-03T20:15:11;3.70;;;1.80;;
33459;SDS011;19795;53.160;6.612;2023-04-03T20:17:38;6.70;;;1.85;;
33459;SDS011;19795;53.160;6.612;2023-04-03T20:20:04;5.45;;;1.80;;
33459;SDS011;19795;53.160;6.612;2023-04-03T20:22:30;4.75;;;1.73;;
33459;SDS011;19795;53.160;6.612;2023-04-03T20:25:00;5.43;;;1.70;;
33459;SDS011;19795;53.160;6.612;2023-04-03T20:27:27;4.68;;;1.80;;
33459;SDS011;19795;53.160;6.612;2023-04-03T20:29:53;5.15;;;1.92;;
33459;SDS011;19795;53.160;6.612;2023-04-03T20:32:19;4.95;;;2.03;;
33459;SDS011;19795;53.160;6.612;2023-04-03T20:34:45;8.43;;;1.98;;
33459;SDS011;19795;53.160;6.612;2023-04-03T20:37:11;3.30;;;1.52;;
33459;SDS011;19795;53.160;6.612;2023-04-03T20:39:38;3.88;;;1.80;;
33459;SDS011;19795;53.160;6.612;2023-04-03T20:42:04;6.40;;;1.80;;
33459;SDS011;19795;53.160;6.612;2023-04-03T20:44:29;3.90;;;1.98;;
33459;SDS011;19795;53.160;6.612;2023-04-03T20:46:56;6.75;;;2.10;;
33459;SDS011;19795;53.160;6.612;2023-04-03T20:49:22;4.50;;;1.90;;
33459;SDS011;19795;53.160;6.612;2023-04-03T20:51:49;6.55;;;2.00;;
33459;SDS011;19795;53.160;6.612;2023-04-03T20:54:18;5.72;;;1.83;;
33459;SDS011;19795;53.160;6.612;2023-04-03T20:56:44;4.47;;;2.15;;
33459;SDS011;19795;53.160;6.612;2023-04-03T20:59:11;6.68;;;2.17;;
33459;SDS011;19795;53.160;6.612;2023-04-03T21:01:38;6.53;;;2.33;;
33459;SDS011;19795;53.160;6.612;2023-04-03T21:04:06;7.28;;;2.17;;
33459;SDS011;19795;53.160;6.612;2023-04-03T21:21:16;12.95;;;4.90;;
33459;SDS011;19795;53.160;6.612;2023-04-03T21:23:47;13.55;;;5.38;;
33459;SDS011;19795;53.160;6.612;2023-04-03T21:26:14;26.08;;;9.98;;
33459;SDS011;19795;53.160;6.612;2023-04-03T21:28:43;30.42;;;11.15;;
33459;SDS011;19795;53.160;6.612;2023-04-03T21:31:09;25.52;;;10.05;;
33459;SDS011;19795;53.160;6.612;2023-04-03T21:33:36;29.35;;;9.48;;
33459;SDS011;19795;53.160;6.612;2023-04-03T21:36:01;24.50;;;7.97;;
33459;SDS011;19795;53.160;6.612;2023-04-03T21:38:27;7.32;;;3.03;;
33459;SDS011;19795;53.160;6.612;2023-04-03T21:40:57;9.05;;;3.75;;
33459;SDS011;19795;53.160;6.612;2023-04-03T21:43:23;8.73;;;3.63;;
33459;SDS011;19795;53.160;6.612;2023-04-03T21:45:52;6.38;;;2.65;;
33459;SDS011;19795;53.160;6.612;2023-04-03T21:48:21;7.70;;;2.63;;
33459;SDS011;19795;53.160;6.612;2023-04-03T21:50:47;4.78;;;2.13;;
33459;SDS011;19795;53.160;6.612;2023-04-03T21:53:17;9.18;;;2.35;;
33459;SDS011;19795;53.160;6.612;2023-04-03T21:55:51;5.05;;;2.20;;
33459;SDS011;19795;53.160;6.612;2023-04-03T21:58:18;5.68;;;2.42;;
33459;SDS011;19795;53.160;6.612;2023-04-03T22:00:44;6.32;;;2.42;;
